Time;durP1;ratioP1;P1;durP2;ratioP2;P2;SDS_P1;SDS_P2;PMS_P1;PMS_P2;Temp;Humidity;BMP_temperature;BMP_pressure;BME280_temperature;BME280_humidity;BME280_pressure;Samples;Min_cycle;Max_cycle;Signal;HPM_P1;HPM_P2
2024/01/17 00:02:11;;;;;;;14.45;10.35;;;0.00;87.80;;;;;;4989644;28;20084;-44
2024/01/17 00:04:38;;;;;;;19.73;12.57;;;0.00;87.80;;;;;;5006857;28;20022;-42
2024/01/17 00:07:05;;;;;;;18.35;11.57;;;0.00;87.80;;;;;;5006635;28;20090;-44
2024/01/17 00:09:32;;;;;;;14.45;10.65;;;0.00;87.60;;;;;;5009244;28;20121;-42
2024/01/17 00:12:03;;;;;;;16.52;11.02;;;0.00;87.50;;;;;;5010171;28;20049;-44
2024/01/17 00:14:34;;;;;;;13.95;10.25;;;0.00;87.30;;;;;;5009826;28;20061;-44
2024/01/17 00:16:59;;;;;;;14.13;10.00;;;0.00;86.90;;;;;;5010245;28;20044;-42
2024/01/17 00:19:26;;;;;;;14.93;9.77;;;0.00;86.80;;;;;;4992403;28;20121;-43
2024/01/17 00:21:57;;;;;;;13.38;10.18;;;0.00;86.80;;;;;;5009996;28;20022;-44
2024/01/17 00:24:23;;;;;;;16.33;10.95;;;0.00;86.80;;;;;;5009816;28;20030;-43
2024/01/17 00:26:50;;;;;;;18.75;12.80;;;0.00;86.80;;;;;;5068495;27;20370;-42
2024/01/17 00:29:17;;;;;;;16.02;9.48;;;0.00;86.80;;;;;;5134011;27;20133;-42
2024/01/17 00:31:43;;;;;;;12.32;9.30;;;0.00;86.90;;;;;;5028171;27;20073;-42
2024/01/17 00:34:09;;;;;;;15.63;9.35;;;0.00;86.70;;;;;;5009606;28;20041;-42
2024/01/17 00:36:38;;;;;;;12.77;9.63;;;0.00;86.70;;;;;;5009544;28;20038;-42
2024/01/17 00:39:09;;;;;;;14.50;9.55;;;0.00;86.60;;;;;;5009697;28;20108;-42
2024/01/17 00:41:36;;;;;;;16.23;9.70;;;0.00;86.70;;;;;;5009557;28;20096;-43
2024/01/17 00:44:04;;;;;;;14.82;9.73;;;0.00;86.40;;;;;;4992002;28;20036;-42
2024/01/17 00:46:30;;;;;;;17.38;10.23;;;0.00;86.40;;;;;;5009269;28;20125;-43
2024/01/17 00:48:57;;;;;;;16.25;9.65;;;0.00;86.40;;;;;;5009454;28;20036;-42
2024/01/17 00:51:29;;;;;;;14.15;8.52;;;-3276.70;86.40;;;;;;5009229;28;20033;-42
2024/01/17 00:53:56;;;;;;;12.65;8.77;;;0.00;86.60;;;;;;5009300;28;20079;-42
2024/01/17 00:56:23;;;;;;;14.45;8.90;;;0.00;86.60;;;;;;5009256;28;20507;-43
2024/01/17 00:58:52;;;;;;;13.38;7.95;;;0.00;86.40;;;;;;5009498;28;20026;-42
2024/01/17 01:01:19;;;;;;;13.65;8.73;;;0.00;86.30;;;;;;5009361;28;20105;-41
2024/01/17 01:03:46;;;;;;;15.27;8.57;;;0.00;86.30;;;;;;5009232;28;20038;-42
2024/01/17 01:06:15;;;;;;;16.83;8.13;;;0.00;86.20;;;;;;5011110;28;20041;-42
2024/01/17 01:08:42;;;;;;;11.70;8.18;;;0.00;86.30;;;;;;5029276;28;20402;-42
2024/01/17 01:11:09;;;;;;;11.82;8.05;;;0.00;86.10;;;;;;5028925;28;20434;-42
2024/01/17 01:13:35;;;;;;;12.30;8.45;;;0.00;86.00;;;;;;5023137;28;20090;-42
2024/01/17 01:16:03;;;;;;;12.77;7.90;;;0.00;85.80;;;;;;5009012;28;20037;-43
2024/01/17 01:18:32;;;;;;;10.25;7.50;;;0.00;85.80;;;;;;5008985;28;20018;-42
2024/01/17 01:21:02;;;;;;;13.43;7.95;;;0.00;85.80;;;;;;5007757;28;20030;-43
2024/01/17 01:23:29;;;;;;;11.55;7.35;;;0.00;85.90;;;;;;5015058;28;20057;-44
2024/01/17 01:25:58;;;;;;;15.63;7.13;;;0.00;85.50;;;;;;5039274;27;20025;-42
2024/01/17 01:28:25;;;;;;;12.38;6.90;;;0.00;85.40;;;;;;5132695;27;20027;-41
2024/01/17 01:30:52;;;;;;;11.05;6.82;;;0.00;85.40;;;;;;5132649;27;20045;-41
2024/01/17 01:33:19;;;;;;;11.57;6.05;;;0.10;85.20;;;;;;5066439;27;20437;-41
2024/01/17 01:35:45;;;;;;;10.10;6.85;;;0.10;84.90;;;;;;5028515;28;20040;-42
2024/01/17 01:38:13;;;;;;;12.57;6.68;;;0.10;85.00;;;;;;5028607;28;20347;-42
2024/01/17 01:40:39;;;;;;;11.25;6.63;;;0.10;84.90;;;;;;5028610;28;20025;-42
2024/01/17 01:43:22;;;;;;;10.00;6.00;;;0.10;84.60;;;;;;5013685;28;20873;-42
2024/01/17 01:46:08;;;;;;;13.02;6.57;;;0.00;84.40;;;;;;5008531;28;20466;-41
2024/01/17 01:48:35;;;;;;;12.05;6.38;;;0.00;84.30;;;;;;5013184;28;20037;-41
2024/01/17 01:51:02;;;;;;;12.18;7.47;;;0.00;84.40;;;;;;5028592;28;20047;-41
2024/01/17 01:53:31;;;;;;;14.57;6.80;;;0.00;84.70;;;;;;5027019;28;20452;-43
2024/01/17 01:55:59;;;;;;;19.67;8.52;;;0.00;84.70;;;;;;4991005;28;20423;-41
2024/01/17 01:58:27;;;;;;;12.50;7.05;;;0.00;84.50;;;;;;4990812;28;20466;-41
2024/01/17 02:00:55;;;;;;;14.50;5.80;;;0.00;84.60;;;;;;5008423;28;20018;-41
2024/01/17 02:03:24;;;;;;;11.82;7.00;;;0.00;84.40;;;;;;5007994;28;20432;-41
2024/01/17 02:05:51;;;;;;;10.35;5.75;;;0.00;84.40;;;;;;5008214;28;20062;-41
2024/01/17 02:08:21;;;;;;;10.63;5.45;;;0.00;84.30;;;;;;5008163;28;20363;-43
2024/01/17 02:10:52;;;;;;;12.32;5.88;;;0.00;84.30;;;;;;5008345;28;20117;-40
2024/01/17 02:13:23;;;;;;;10.38;6.32;;;0.00;84.20;;;;;;5005742;28;20030;-41
2024/01/17 02:15:49;;;;;;;13.27;5.53;;;0.00;84.10;;;;;;5027910;28;20052;-41
2024/01/17 02:18:15;;;;;;;8.90;5.22;;;0.00;84.00;;;;;;5027547;28;20082;-41
2024/01/17 02:20:43;;;;;;;11.48;7.30;;;0.00;84.10;;;;;;5027229;28;20462;-42
2024/01/17 02:23:24;;;;;;;11.52;5.50;;;0.00;83.90;;;;;;5008437;28;20030;-41
2024/01/17 02:25:52;;;;;;;12.85;6.20;;;0.00;83.80;;;;;;4998680;27;20034;-40
2024/01/17 02:28:19;;;;;;;10.05;5.75;;;0.00;83.60;;;;;;5046869;27;20038;-41
2024/01/17 02:30:48;;;;;;;10.85;5.53;;;0.00;83.70;;;;;;5013301;28;20037;-41
2024/01/17 02:33:16;;;;;;;14.55;6.05;;;0.00;83.70;;;;;;4990601;28;20618;-41
2024/01/17 02:35:43;;;;;;;11.38;6.57;;;0.00;83.30;;;;;;5008154;28;20033;-42
2024/01/17 02:38:12;;;;;;;9.38;5.43;;;0.00;83.20;;;;;;5008002;28;20524;-41
2024/01/17 02:40:39;;;;;;;8.60;5.80;;;0.00;82.90;;;;;;5007724;28;20045;-41
2024/01/17 02:43:06;;;;;;;8.23;4.85;;;0.00;83.20;;;;;;5008035;28;20064;-41
2024/01/17 02:45:33;;;;;;;11.52;6.40;;;0.00;83.30;;;;;;5007662;28;20453;-41
2024/01/17 02:47:59;;;;;;;8.52;4.97;;;0.00;83.30;;;;;;5007729;28;20053;-41
2024/01/17 02:50:31;;;;;;;10.52;5.07;;;0.00;83.00;;;;;;5007615;28;20038;-40
2024/01/17 02:52:58;;;;;;;12.90;5.82;;;0.00;83.00;;;;;;5007746;28;20030;-40
2024/01/17 02:55:25;;;;;;;9.35;5.32;;;0.00;82.90;;;;;;5007501;28;20467;-41
2024/01/17 02:57:52;;;;;;;12.75;5.63;;;0.00;83.10;;;;;;5007642;28;20117;-41
2024/01/17 03:00:19;;;;;;;8.35;5.75;;;0.00;82.80;;;;;;5007451;28;20413;-41
2024/01/17 03:02:46;;;;;;;7.47;5.32;;;0.00;82.80;;;;;;5007681;28;20107;-41
2024/01/17 03:05:13;;;;;;;10.05;5.43;;;0.00;82.90;;;;;;5007526;28;20401;-40
2024/01/17 03:07:40;;;;;;;11.55;5.80;;;0.00;82.50;;;;;;5007502;28;20370;-41
2024/01/17 03:10:08;;;;;;;11.15;6.60;;;0.00;82.60;;;;;;5025126;28;20141;-42
2024/01/17 03:12:38;;;;;;;12.50;6.23;;;0.00;82.50;;;;;;5027173;28;20049;-42
2024/01/17 03:15:05;;;;;;;;;;;0.00;82.20;;;;;;5009514;28;20534;-41
2024/01/17 03:17:33;;;;;;;9.85;5.65;;;0.00;81.80;;;;;;5007000;28;20396;-42
2024/01/17 03:20:00;;;;;;;12.88;6.50;;;0.00;82.00;;;;;;4989571;28;20113;-40
2024/01/17 03:22:27;;;;;;;13.57;5.63;;;0.00;81.70;;;;;;5007364;28;20022;-40
2024/01/17 03:24:53;;;;;;;11.38;6.80;;;-3276.70;81.90;;;;;;4989837;28;20022;-41
2024/01/17 03:27:20;;;;;;;10.98;6.35;;;-3276.70;82.40;;;;;;5010864;28;20029;-40
2024/01/17 03:29:47;;;;;;;10.05;6.82;;;-3276.60;82.30;;;;;;4989737;28;20075;-41
2024/01/17 03:32:14;;;;;;;11.82;6.75;;;-3276.60;82.40;;;;;;5023085;28;20034;-41
2024/01/17 03:34:42;;;;;;;16.10;8.35;;;-3276.60;82.20;;;;;;5026923;28;20075;-40
2024/01/17 03:37:09;;;;;;;12.00;6.82;;;-3276.60;82.10;;;;;;5026814;28;20081;-41
2024/01/17 03:39:44;;;;;;;11.63;7.22;;;-3276.60;81.80;;;;;;5017888;28;20030;-41
2024/01/17 03:42:15;;;;;;;14.60;8.35;;;-3276.50;81.90;;;;;;5007166;28;20362;-42
2024/01/17 03:44:43;;;;;;;16.23;8.80;;;-3276.50;82.10;;;;;;4992831;28;20025;-40
2024/01/17 03:47:11;;;;;;;14.25;8.80;;;-3276.50;81.90;;;;;;5010143;28;20053;-41
2024/01/17 03:49:38;;;;;;;10.88;6.95;;;-3276.50;81.90;;;;;;5028164;28;20021;-40
2024/01/17 03:52:07;;;;;;;13.85;8.90;;;-3276.40;81.90;;;;;;5029374;28;20033;-40
2024/01/17 03:54:36;;;;;;;17.58;8.85;;;-3276.40;82.10;;;;;;5010500;28;20022;-40
2024/01/17 03:57:04;;;;;;;12.57;8.82;;;-3276.40;82.00;;;;;;5022562;28;20192;-40
2024/01/17 03:59:31;;;;;;;12.57;8.38;;;-3276.40;82.20;;;;;;5029893;28;20030;-40
2024/01/17 04:01:58;;;;;;;12.88;7.95;;;-3276.40;82.10;;;;;;5030073;28;20033;-40
2024/01/17 04:04:24;;;;;;;14.43;8.63;;;-3276.40;82.10;;;;;;5030036;28;20045;-40
2024/01/17 04:06:51;;;;;;;12.63;8.95;;;-3276.40;82.30;;;;;;5018085;28;20139;-41
2024/01/17 04:09:19;;;;;;;17.75;9.10;;;-3276.40;82.30;;;;;;5010127;28;20034;-41
2024/01/17 04:11:45;;;;;;;15.02;8.55;;;-3276.40;82.60;;;;;;5022024;28;20029;-41
2024/01/17 04:14:12;;;;;;;13.75;8.05;;;-3276.40;82.30;;;;;;5030043;28;20049;-41
2024/01/17 04:16:41;;;;;;;12.95;9.50;;;-3276.40;82.40;;;;;;5014018;28;20112;-41
2024/01/17 04:19:09;;;;;;;12.23;8.07;;;-3276.50;82.30;;;;;;5009899;28;20026;-41
2024/01/17 04:21:36;;;;;;;13.65;8.25;;;-3276.50;82.50;;;;;;5009990;28;20506;-41
2024/01/17 04:24:03;;;;;;;12.55;9.52;;;-3276.50;82.40;;;;;;5009883;28;20050;-42
2024/01/17 04:26:30;;;;;;;15.82;8.27;;;-3276.50;82.20;;;;;;5051802;27;20092;-41
2024/01/17 04:28:56;;;;;;;14.52;8.18;;;-3276.50;82.60;;;;;;5134023;27;20592;-42
2024/01/17 04:31:30;;;;;;;15.90;8.23;;;-3276.50;82.40;;;;;;5133748;27;20050;-42
2024/01/17 04:33:58;;;;;;;10.50;7.60;;;-3276.50;82.20;;;;;;4992056;28;20061;-41
2024/01/17 04:36:30;;;;;;;15.10;8.25;;;-3276.50;82.20;;;;;;5009549;28;20037;-41
2024/01/17 04:39:00;;;;;;;16.83;9.68;;;-3276.50;82.20;;;;;;5009596;28;20030;-43
2024/01/17 04:41:27;;;;;;;11.70;7.97;;;-3276.50;82.40;;;;;;5009368;28;20598;-41
2024/01/17 04:43:53;;;;;;;12.82;7.97;;;-3276.40;82.60;;;;;;5009851;28;20032;-41
2024/01/17 04:46:19;;;;;;;13.02;8.00;;;-3276.40;82.80;;;;;;5009249;28;20141;-41
2024/01/17 04:48:49;;;;;;;15.43;8.85;;;-3276.40;82.70;;;;;;5009438;28;20098;-42
2024/01/17 04:51:16;;;;;;;14.18;7.93;;;-3276.40;82.60;;;;;;5009627;28;20030;-41
2024/01/17 04:53:43;;;;;;;12.75;8.18;;;-3276.40;82.40;;;;;;5009150;28;20166;-41
2024/01/17 04:56:11;;;;;;;13.27;7.63;;;-3276.40;82.70;;;;;;5009317;28;20034;-43
2024/01/17 04:58:38;;;;;;;13.38;8.75;;;-3276.40;82.60;;;;;;5009026;28;20045;-42
2024/01/17 05:01:06;;;;;;;13.82;8.15;;;-3276.40;82.90;;;;;;4991277;28;20455;-42
2024/01/17 05:03:33;;;;;;;12.68;7.95;;;-3276.40;83.10;;;;;;4991637;28;20038;-42
2024/01/17 05:06:00;;;;;;;13.23;9.07;;;-3276.40;83.00;;;;;;5009214;28;20026;-44
2024/01/17 05:08:28;;;;;;;10.98;7.82;;;-3276.40;83.10;;;;;;5009049;28;20026;-41
2024/01/17 05:10:55;;;;;;;12.65;7.65;;;-3276.40;83.20;;;;;;5008944;28;20042;-41
2024/01/17 05:13:25;;;;;;;15.00;8.82;;;-3276.40;83.10;;;;;;4991320;28;20042;-42
2024/01/17 05:15:51;;;;;;;15.52;7.95;;;-3276.40;83.10;;;;;;5008954;28;20483;-43
2024/01/17 05:18:20;;;;;;;13.73;8.00;;;-3276.40;83.00;;;;;;5009133;28;20090;-42
2024/01/17 05:20:47;;;;;;;14.10;9.77;;;-3276.40;83.10;;;;;;4991264;28;20054;-42
2024/01/17 05:23:14;;;;;;;12.88;8.05;;;-3276.40;83.10;;;;;;5009266;28;20663;-42
2024/01/17 05:25:41;;;;;;;13.63;8.85;;;-3276.40;83.10;;;;;;5009166;28;20030;-42
2024/01/17 05:28:08;;;;;;;18.10;7.88;;;-3276.40;83.00;;;;;;5009211;28;20041;-41
2024/01/17 05:30:35;;;;;;;14.00;7.70;;;-3276.30;83.10;;;;;;5009368;28;20057;-41
2024/01/17 05:33:04;;;;;;;11.60;7.50;;;-3276.30;83.20;;;;;;5022044;28;20086;-42
2024/01/17 05:35:33;;;;;;;13.00;7.95;;;-3276.30;83.10;;;;;;5028474;28;20029;-42
2024/01/17 05:38:00;;;;;;;11.27;8.02;;;-3276.30;83.30;;;;;;5028497;28;20134;-41
2024/01/17 05:40:31;;;;;;;10.73;7.25;;;-3276.30;83.50;;;;;;5028621;28;20450;-41
2024/01/17 05:43:00;;;;;;;10.43;7.07;;;-3276.30;83.70;;;;;;4996390;28;20359;-41
2024/01/17 05:45:26;;;;;;;11.18;7.93;;;-3276.30;83.50;;;;;;5008640;28;20022;-42
2024/01/17 05:47:52;;;;;;;12.43;7.38;;;-3276.30;83.60;;;;;;5008626;28;20367;-41
2024/01/17 05:50:19;;;;;;;11.57;7.85;;;-3276.30;83.60;;;;;;5027885;28;20415;-40
2024/01/17 05:52:51;;;;;;;10.43;7.68;;;-3276.30;83.80;;;;;;5028299;28;20037;-41
2024/01/17 05:55:20;;;;;;;15.25;8.65;;;-3276.30;83.80;;;;;;5028123;28;20061;-41
2024/01/17 05:57:47;;;;;;;15.35;8.15;;;-3276.30;83.60;;;;;;5026947;28;20055;-40
2024/01/17 06:00:14;;;;;;;12.43;8.10;;;-3276.30;83.70;;;;;;5028096;28;20018;-40
2024/01/17 06:02:45;;;;;;;9.80;7.43;;;-3276.30;83.60;;;;;;5027936;28;20041;-40
2024/01/17 06:05:11;;;;;;;12.65;8.20;;;-3276.30;83.80;;;;;;5012047;28;20064;-40
2024/01/17 06:07:42;;;;;;;12.75;8.45;;;-3276.20;83.90;;;;;;5007923;28;20335;-40
2024/01/17 06:10:14;;;;;;;10.10;7.60;;;-3276.20;83.90;;;;;;5008889;28;20503;-40
2024/01/17 06:12:42;;;;;;;11.82;8.05;;;-3276.30;83.90;;;;;;5008464;28;20030;-41
2024/01/17 06:15:10;;;;;;;12.95;8.43;;;-3276.30;83.80;;;;;;5021585;28;20057;-41
2024/01/17 06:17:36;;;;;;;11.98;7.93;;;-3276.20;84.10;;;;;;5027817;28;20038;-41
2024/01/17 06:20:02;;;;;;;11.80;7.80;;;-3276.20;84.10;;;;;;5028223;28;20041;-40
2024/01/17 06:22:29;;;;;;;13.20;7.10;;;-3276.30;84.20;;;;;;5018111;28;20034;-41
2024/01/17 06:24:56;;;;;;;10.15;7.55;;;-3276.30;84.20;;;;;;5008109;28;20043;-40
2024/01/17 06:27:28;;;;;;;14.13;8.13;;;-3276.30;83.90;;;;;;5076800;27;20084;-40
2024/01/17 06:29:55;;;;;;;13.15;6.97;;;-3276.30;84.00;;;;;;5132099;27;20030;-40
2024/01/17 06:32:22;;;;;;;10.18;7.45;;;-3276.30;83.90;;;;;;5040849;27;20030;-40
2024/01/17 06:34:48;;;;;;;11.30;7.43;;;-3276.30;83.80;;;;;;5007922;28;20101;-40
2024/01/17 06:37:15;;;;;;;13.82;8.73;;;-3276.30;84.00;;;;;;5007609;28;20121;-40
2024/01/17 06:39:43;;;;;;;11.25;7.32;;;-3276.30;84.00;;;;;;5008063;28;20030;-40
2024/01/17 06:42:10;;;;;;;18.42;9.10;;;-3276.30;84.00;;;;;;5008056;28;20022;-40
2024/01/17 06:44:37;;;;;;;10.20;7.03;;;-3276.20;84.10;;;;;;4990484;28;20026;-40
2024/01/17 06:47:05;;;;;;;12.10;7.82;;;-3276.20;84.10;;;;;;5007600;28;20050;-40
2024/01/17 06:49:32;;;;;;;10.98;7.25;;;-3276.20;84.10;;;;;;5007901;28;20029;-40
2024/01/17 06:51:59;;;;;;;10.32;5.88;;;-3276.20;84.00;;;;;;5007484;28;20026;-40
2024/01/17 06:54:29;;;;;;;14.20;6.20;;;-3276.20;84.00;;;;;;4990272;28;20026;-40
2024/01/17 06:56:56;;;;;;;12.10;7.00;;;-3276.20;83.70;;;;;;5007434;28;20321;-39
2024/01/17 06:59:22;;;;;;;8.70;6.30;;;-3276.20;83.60;;;;;;5007875;28;20376;-40
2024/01/17 07:01:49;;;;;;;16.50;6.85;;;-3276.20;83.80;;;;;;4990467;28;20182;-41
2024/01/17 07:04:16;;;;;;;11.32;6.55;;;-3276.10;83.70;;;;;;4989834;28;20041;-40
2024/01/17 07:06:42;;;;;;;11.18;7.25;;;-3276.10;83.80;;;;;;5007292;28;20048;-40
2024/01/17 07:09:10;;;;;;;13.18;6.72;;;-3276.10;83.80;;;;;;5007274;28;20030;-39
2024/01/17 07:11:37;;;;;;;13.15;7.70;;;-3276.10;83.70;;;;;;5007509;28;20579;-40
2024/01/17 07:14:05;;;;;;;11.60;7.20;;;-3276.20;83.70;;;;;;5007304;28;20155;-40
2024/01/17 07:16:33;;;;;;;10.40;6.63;;;-3276.10;83.70;;;;;;5007126;28;20427;-39
2024/01/17 07:19:00;;;;;;;15.80;7.20;;;-3276.10;83.70;;;;;;5017513;28;20026;-40
2024/01/17 07:21:27;;;;;;;13.98;6.95;;;-3276.10;83.80;;;;;;5027038;28;20113;-39
2024/01/17 07:23:54;;;;;;;13.45;7.40;;;-3276.20;83.70;;;;;;5024682;28;20124;-39
2024/01/17 07:26:20;;;;;;;10.43;6.70;;;-3276.20;83.70;;;;;;5040755;28;20022;-40
2024/01/17 07:28:47;;;;;;;12.30;6.65;;;-3276.20;83.70;;;;;;5121045;28;20110;-40
2024/01/17 07:31:14;;;;;;;15.57;7.57;;;-3276.20;83.60;;;;;;5007176;28;20029;-39
2024/01/17 07:33:42;;;;;;;14.82;6.70;;;-3276.20;83.70;;;;;;5007000;28;20025;-40
2024/01/17 07:36:09;;;;;;;18.60;9.27;;;-3276.10;83.80;;;;;;5006929;28;20033;-39
2024/01/17 07:38:36;;;;;;;10.82;6.80;;;-3276.20;83.80;;;;;;4990016;28;20022;-40
2024/01/17 07:41:05;;;;;;;10.60;6.88;;;-3276.20;83.80;;;;;;5007242;28;20030;-39
2024/01/17 07:43:34;;;;;;;13.80;6.15;;;-3276.20;83.70;;;;;;5006964;28;20442;-39
2024/01/17 07:46:00;;;;;;;10.77;6.22;;;-3276.30;83.70;;;;;;5020125;28;20044;-40
2024/01/17 07:48:27;;;;;;;14.10;7.13;;;-3276.20;83.70;;;;;;5026813;28;20033;-41
2024/01/17 07:50:54;;;;;;;13.25;6.57;;;-3276.30;83.80;;;;;;5024824;28;20112;-39
2024/01/17 07:53:21;;;;;;;10.02;6.82;;;-3276.30;83.90;;;;;;5006877;28;20041;-40
2024/01/17 07:55:48;;;;;;;10.13;6.97;;;-3276.30;83.90;;;;;;4988992;28;20042;-40
2024/01/17 07:58:16;;;;;;;10.95;6.88;;;-3276.30;83.60;;;;;;5006403;28;20034;-40
2024/01/17 08:00:47;;;;;;;11.95;7.07;;;-3276.30;83.40;;;;;;5017493;28;20017;-40
2024/01/17 08:03:16;;;;;;;11.88;6.68;;;-3276.30;83.60;;;;;;5025859;28;20373;-39
2024/01/17 08:05:42;;;;;;;11.93;7.25;;;-3276.30;83.70;;;;;;5013546;28;20331;-40
2024/01/17 08:08:11;;;;;;;12.23;7.70;;;-3276.30;83.50;;;;;;5006576;28;20041;-39
2024/01/17 08:10:38;;;;;;;11.52;6.55;;;-3276.30;83.50;;;;;;5006644;28;20183;-40
2024/01/17 08:13:05;;;;;;;11.43;6.72;;;-3276.30;83.50;;;;;;4989306;28;20347;-40
2024/01/17 08:15:32;;;;;;;16.45;6.82;;;-3276.30;83.60;;;;;;5006327;28;20064;-40
2024/01/17 08:17:58;;;;;;;10.52;6.55;;;-3276.30;83.70;;;;;;5006671;28;20097;-40
2024/01/17 08:20:25;;;;;;;10.75;6.63;;;-3276.30;83.60;;;;;;4989211;28;20116;-39
2024/01/17 08:22:52;;;;;;;11.13;6.97;;;-3276.30;83.60;;;;;;5006555;28;20397;-40
2024/01/17 08:25:21;;;;;;;9.77;6.82;;;-3276.30;83.60;;;;;;5006582;28;20030;-40
2024/01/17 08:27:50;;;;;;;10.98;6.43;;;-3276.30;83.60;;;;;;5099714;28;20473;-40
2024/01/17 08:30:16;;;;;;;12.48;7.70;;;-3276.30;83.70;;;;;;4991374;28;20072;-39
2024/01/17 08:32:43;;;;;;;12.68;7.07;;;-3276.30;83.70;;;;;;5009626;28;20466;-39
2024/01/17 08:35:14;;;;;;;11.00;6.38;;;-3276.30;83.60;;;;;;5009766;28;20412;-39
2024/01/17 08:37:41;;;;;;;15.40;9.10;;;-3276.30;83.20;;;;;;5009389;28;20117;-39
2024/01/17 08:40:08;;;;;;;11.98;6.68;;;-3276.30;83.30;;;;;;5009611;28;20166;-41
2024/01/17 08:42:35;;;;;;;11.32;6.78;;;-3276.30;83.10;;;;;;5009497;28;20141;-39
2024/01/17 08:45:02;;;;;;;13.73;6.32;;;-3276.30;83.00;;;;;;5009506;28;20029;-39
2024/01/17 08:47:28;;;;;;;11.32;7.13;;;-3276.30;83.00;;;;;;5009685;28;20034;-41
2024/01/17 08:50:00;;;;;;;14.05;6.65;;;-3276.30;83.00;;;;;;5009552;28;20018;-39
2024/01/17 08:52:27;;;;;;;10.38;6.65;;;-3276.30;83.30;;;;;;5009177;28;20057;-40
2024/01/17 08:54:54;;;;;;;9.70;6.63;;;-3276.30;83.30;;;;;;4992109;28;20457;-40
2024/01/17 08:57:21;;;;;;;10.45;6.68;;;-3276.30;83.10;;;;;;5009499;28;20026;-40
2024/01/17 08:59:49;;;;;;;12.10;6.43;;;-3276.30;83.30;;;;;;5025708;28;20332;-41
2024/01/17 09:02:19;;;;;;;12.60;7.05;;;-3276.30;83.20;;;;;;5011369;28;20428;-41
2024/01/17 09:04:44;;;;;;;13.60;6.53;;;-3276.30;83.50;;;;;;5028888;28;20207;-41
2024/01/17 09:07:10;;;;;;;11.48;7.47;;;-3276.30;83.40;;;;;;4993945;28;20124;-40
2024/01/17 09:09:37;;;;;;;13.95;7.07;;;-3276.30;83.30;;;;;;5008838;28;20101;-39
2024/01/17 09:12:04;;;;;;;13.18;6.70;;;-3276.30;83.20;;;;;;5008878;28;20018;-39
2024/01/17 09:14:31;;;;;;;12.00;6.88;;;-3276.30;83.00;;;;;;5008760;28;20044;-39
2024/01/17 09:16:58;;;;;;;13.13;7.00;;;-3276.30;83.10;;;;;;5008949;28;20036;-40
2024/01/17 09:19:25;;;;;;;15.10;6.43;;;-3276.30;83.10;;;;;;5009318;28;20062;-41
2024/01/17 09:21:54;;;;;;;10.75;7.30;;;-3276.30;83.30;;;;;;4991326;28;20025;-40
2024/01/17 09:24:20;;;;;;;9.95;7.88;;;-3276.40;83.50;;;;;;5008893;28;20318;-40
2024/01/17 09:26:49;;;;;;;11.68;6.55;;;-3276.40;82.90;;;;;;5065283;27;20027;-40
2024/01/17 09:29:16;;;;;;;10.40;6.85;;;-3276.40;83.10;;;;;;5057945;27;20117;-40
2024/01/17 09:31:47;;;;;;;10.77;6.07;;;-3276.40;83.10;;;;;;5008981;28;20462;-40
2024/01/17 09:34:13;;;;;;;13.30;7.05;;;-3276.50;83.40;;;;;;5008599;28;20026;-40
2024/01/17 09:36:39;;;;;;;12.60;7.85;;;-3276.50;83.10;;;;;;5008615;28;20371;-40
2024/01/17 09:39:05;;;;;;;11.15;7.05;;;-3276.50;82.90;;;;;;5008617;28;20030;-40
2024/01/17 09:41:35;;;;;;;10.70;6.25;;;-3276.60;83.00;;;;;;5007692;28;20366;-40
2024/01/17 09:44:01;;;;;;;10.60;7.38;;;-3276.60;83.00;;;;;;5008654;28;20065;-41
2024/01/17 09:46:31;;;;;;;9.82;6.70;;;-3276.60;82.80;;;;;;5008806;28;20062;-41
2024/01/17 09:48:58;;;;;;;9.95;6.85;;;-3276.60;82.60;;;;;;4991349;28;20038;-40
2024/01/17 09:51:27;;;;;;;10.75;6.30;;;-3276.60;82.60;;;;;;4991191;28;20465;-40
2024/01/17 09:53:58;;;;;;;;;;;-3276.60;82.60;;;;;;5008616;28;20079;-40
2024/01/17 09:56:28;;;;;;;12.48;7.22;;;-3276.70;82.20;;;;;;5008227;28;20370;-40
2024/01/17 09:58:55;;;;;;;12.35;6.68;;;-3276.70;82.30;;;;;;5008304;28;20038;-40
2024/01/17 10:01:28;;;;;;;11.68;7.65;;;-3276.60;82.20;;;;;;5007965;28;20531;-40
2024/01/17 10:04:00;;;;;;;12.90;6.55;;;-3276.60;82.30;;;;;;5008208;28;20628;-41
2024/01/17 10:06:27;;;;;;;10.75;6.70;;;-3276.60;82.20;;;;;;5024392;28;20041;-41
2024/01/17 10:08:54;;;;;;;13.70;7.47;;;-3276.70;82.40;;;;;;5027975;28;20112;-40
2024/01/17 10:11:24;;;;;;;11.73;7.63;;;-3276.70;82.40;;;;;;5010163;28;20129;-40
2024/01/17 10:13:52;;;;;;;11.98;6.38;;;-3276.70;82.50;;;;;;5024235;28;20112;-42
2024/01/17 10:16:19;;;;;;;9.05;6.43;;;-3276.70;82.20;;;;;;5007942;28;20662;-40
2024/01/17 10:18:46;;;;;;;16.38;8.20;;;-3276.70;82.10;;;;;;4990427;28;20492;-40
2024/01/17 10:21:12;;;;;;;12.18;6.57;;;-3276.70;82.30;;;;;;5008070;28;20432;-39
2024/01/17 10:23:40;;;;;;;10.05;6.63;;;-3276.70;82.10;;;;;;4990497;28;20108;-40
2024/01/17 10:26:09;;;;;;;10.57;6.88;;;0.00;82.50;;;;;;5008632;28;20370;-41
2024/01/17 10:28:36;;;;;;;8.32;6.50;;;0.00;82.30;;;;;;5007689;28;20029;-40
2024/01/17 10:31:05;;;;;;;11.30;6.85;;;0.00;82.30;;;;;;5014443;28;20494;-41
2024/01/17 10:33:32;;;;;;;;;;;0.00;82.10;;;;;;5027741;28;20535;-40
2024/01/17 10:36:02;;;;;;;11.27;7.35;;;0.00;82.10;;;;;;5010807;28;20346;-41
2024/01/17 10:38:32;;;;;;;11.20;6.97;;;0.00;82.10;;;;;;5007726;28;20044;-40
2024/01/17 10:41:08;;;;;;;9.45;5.97;;;0.00;82.00;;;;;;5007488;28;20101;-40
2024/01/17 10:43:55;;;;;;;12.90;6.93;;;0.00;82.10;;;;;;5008070;28;20376;-40
2024/01/17 10:46:22;;;;;;;10.73;6.97;;;0.00;82.20;;;;;;5007630;28;20455;-39
2024/01/17 10:48:49;;;;;;;12.00;7.93;;;0.00;82.20;;;;;;5007589;28;20057;-40
2024/01/17 10:51:21;;;;;;;10.60;7.07;;;0.00;82.50;;;;;;5007494;28;20037;-40
2024/01/17 10:53:52;;;;;;;10.60;6.88;;;0.00;82.80;;;;;;5007357;28;20040;-40
2024/01/17 10:56:20;;;;;;;12.02;8.02;;;0.00;82.90;;;;;;5006945;28;20022;-40
2024/01/17 10:58:53;;;;;;;11.45;7.05;;;0.00;83.60;;;;;;5006872;28;20026;-40
2024/01/17 11:01:43;;;;;;;13.35;7.97;;;0.00;83.80;;;;;;5007383;28;20105;-40
2024/01/17 11:04:31;;;;;;;10.80;7.75;;;0.00;83.80;;;;;;4990183;28;20087;-40
2024/01/17 11:06:59;;;;;;;10.90;7.60;;;0.00;84.50;;;;;;4990044;28;20077;-40
2024/01/17 11:09:29;;;;;;;10.67;6.87;;;0.00;84.40;;;;;;5007489;28;20029;-41
2024/01/17 11:11:57;;;;;;;13.57;7.40;;;0.00;84.30;;;;;;5007317;28;20125;-40
2024/01/17 11:14:30;;;;;;;9.98;6.70;;;0.00;84.10;;;;;;5007296;28;20038;-40
2024/01/17 11:17:03;;;;;;;12.25;6.40;;;0.00;84.30;;;;;;5007480;28;20030;-40
2024/01/17 11:19:33;;;;;;;11.73;7.88;;;0.00;83.90;;;;;;5007634;28;20379;-40
2024/01/17 11:22:01;;;;;;;13.73;7.97;;;0.00;84.30;;;;;;5007802;28;20072;-42
2024/01/17 11:25:16;;;;;;;10.57;6.57;;;0.00;84.60;;;;;;5006940;28;20038;-41
2024/01/17 11:28:17;;;;;;;13.45;7.68;;;0.00;84.80;;;;;;5048333;28;20357;-40
2024/01/17 11:31:31;;;;;;;12.98;7.88;;;0.00;84.90;;;;;;5007235;28;20037;-40
2024/01/17 11:33:58;;;;;;;14.63;7.65;;;0.00;85.40;;;;;;5006968;28;20029;-40
2024/01/17 11:36:46;;;;;;;14.93;7.65;;;0.00;85.30;;;;;;5007029;28;20379;-40
2024/01/17 11:39:16;;;;;;;13.85;8.80;;;0.00;85.30;;;;;;5007137;28;20140;-42
2024/01/17 11:41:44;;;;;;;12.07;8.00;;;0.00;85.70;;;;;;5007034;28;20083;-40
2024/01/17 11:44:16;;;;;;;12.77;8.13;;;0.00;85.80;;;;;;5006898;28;20034;-41
2024/01/17 11:46:54;;;;;;;12.52;8.00;;;0.00;85.80;;;;;;5006804;28;20041;-40
2024/01/17 11:49:42;;;;;;;14.07;7.10;;;0.00;85.80;;;;;;4989523;28;20026;-40
2024/01/17 11:52:37;;;;;;;11.25;8.05;;;0.10;85.80;;;;;;5023668;28;20053;-40
2024/01/17 11:55:05;;;;;;;11.07;6.97;;;0.10;85.70;;;;;;5019331;28;20045;-40
2024/01/17 11:57:42;;;;;;;11.98;6.95;;;0.10;85.50;;;;;;5020117;28;20030;-41
2024/01/17 12:00:12;;;;;;;11.52;7.82;;;0.10;85.40;;;;;;5006764;28;20018;-41
2024/01/17 12:02:59;;;;;;;11.18;7.45;;;0.20;85.40;;;;;;5006526;28;20440;-41
2024/01/17 12:05:26;;;;;;;10.75;7.60;;;0.20;85.40;;;;;;5009346;28;20691;-43
2024/01/17 12:07:53;;;;;;;14.45;7.43;;;0.20;85.20;;;;;;4992921;28;20044;-41
2024/01/17 12:10:23;;;;;;;8.68;6.40;;;0.20;85.40;;;;;;5010304;28;20037;-43
2024/01/17 12:12:50;;;;;;;12.10;7.00;;;0.20;85.20;;;;;;5009765;28;20046;-41
2024/01/17 12:15:19;;;;;;;10.38;6.80;;;0.20;85.40;;;;;;4992266;28;20034;-41
2024/01/17 12:17:46;;;;;;;11.02;7.38;;;0.20;85.50;;;;;;5009906;28;20056;-43
2024/01/17 12:20:13;;;;;;;11.50;7.10;;;0.20;85.50;;;;;;5018623;28;20048;-43
2024/01/17 12:22:39;;;;;;;9.32;6.85;;;0.20;85.60;;;;;;5029573;28;20154;-42
2024/01/17 12:25:09;;;;;;;10.55;6.65;;;0.20;85.90;;;;;;5029589;28;20116;-43
2024/01/17 12:27:36;;;;;;;;;;;0.20;85.70;;;;;;5039103;27;20125;-42
2024/01/17 12:30:08;;;;;;;11.07;7.80;;;0.30;85.90;;;;;;5009948;28;19921;-42
2024/01/17 12:32:38;;;;;;;10.98;6.78;;;0.40;85.90;;;;;;5009978;28;20091;-43
2024/01/17 12:35:06;;;;;;;14.18;7.72;;;0.30;85.60;;;;;;5009627;28;20022;-43